createdAt,value
2023-03-21T00:01:43.876Z,52.04
2023-03-21T00:04:12.019Z,52.90
2023-03-21T00:06:40.608Z,53.18
2023-03-21T00:09:08.276Z,52.95
2023-03-21T00:11:35.985Z,52.89
2023-03-21T00:14:03.659Z,52.67
2023-03-21T00:16:39.966Z,52.68
2023-03-21T00:19:10.677Z,52.81
2023-03-21T00:21:49.026Z,52.47
2023-03-21T00:24:19.860Z,52.84
2023-03-21T00:26:47.540Z,52.44
2023-03-21T00:29:15.295Z,52.23
2023-03-21T00:31:44.948Z,52.51
2023-03-21T00:34:14.150Z,52.74
2023-03-21T00:36:42.029Z,52.42
2023-03-21T00:39:09.740Z,52.29
2023-03-21T00:41:44.556Z,53.15
2023-03-21T00:44:13.765Z,53.41
2023-03-21T00:46:49.307Z,53.36
2023-03-21T00:49:23.433Z,53.52
2023-03-21T00:51:53.199Z,52.92
2023-03-21T00:54:21.124Z,53.36
2023-03-21T00:56:48.836Z,53.60
2023-03-21T00:59:16.608Z,52.71
2023-03-21T01:01:46.480Z,52.28
2023-03-21T01:04:16.829Z,52.87
2023-03-21T01:06:46.093Z,52.98
2023-03-21T01:09:15.060Z,52.94
2023-03-21T01:11:43.048Z,52.54
2023-03-21T01:14:21.976Z,52.75
2023-03-21T01:16:50.999Z,52.63
2023-03-21T01:19:50.658Z,52.64
2023-03-21T01:22:08.951Z,52.90
2023-03-21T01:24:40.473Z,52.61
2023-03-21T01:27:11.594Z,52.56
2023-03-21T01:29:39.301Z,52.90
2023-03-21T01:32:07.116Z,52.80
2023-03-21T01:34:34.784Z,52.75
2023-03-21T01:37:02.640Z,52.65
2023-03-21T01:39:34.836Z,52.49
2023-03-21T01:42:02.598Z,52.67
2023-03-21T01:44:30.780Z,53.18
2023-03-21T01:47:10.367Z,52.71
2023-03-21T01:49:39.589Z,52.47
2023-03-21T01:52:13.038Z,52.62
2023-03-21T01:54:43.198Z,52.25
2023-03-21T01:57:11.763Z,52.45
2023-03-21T01:59:41.648Z,52.25
2023-03-21T02:02:10.626Z,53.06
2023-03-21T02:04:38.565Z,52.61
2023-03-21T02:07:08.070Z,52.67
2023-03-21T02:09:36.312Z,52.65
2023-03-21T02:12:07.221Z,52.77
2023-03-21T02:14:35.002Z,52.84
2023-03-21T02:17:06.436Z,52.78
2023-03-21T02:20:09.182Z,52.72
2023-03-21T02:22:55.936Z,52.39
2023-03-21T02:26:03.915Z,52.47
2023-03-21T02:28:34.002Z,52.30
2023-03-21T02:31:23.868Z,52.30
2023-03-21T02:34:41.919Z,52.73
2023-03-21T02:37:28.840Z,51.84
2023-03-21T02:40:07.944Z,52.34
2023-03-21T02:42:37.542Z,52.34
2023-03-21T02:45:07.496Z,52.14
2023-03-21T02:47:35.783Z,52.05
2023-03-21T02:50:06.872Z,52.16
2023-03-21T02:52:39.631Z,52.23
2023-03-21T02:55:13.554Z,52.23
2023-03-21T02:57:43.349Z,51.89
2023-03-21T03:00:17.006Z,51.83
2023-03-21T03:02:45.179Z,51.61
2023-03-21T03:05:21.255Z,51.70
2023-03-21T03:08:07.848Z,51.89
2023-03-21T03:10:44.487Z,51.64
2023-03-21T03:13:22.199Z,51.64
2023-03-21T03:15:55.401Z,51.52
2023-03-21T03:18:27.459Z,51.71
2023-03-21T03:21:01.418Z,51.80
2023-03-21T03:23:31.704Z,51.71
2023-03-21T03:26:01.410Z,51.83
2023-03-21T03:28:32.074Z,51.59
2023-03-21T03:31:09.342Z,51.63
2023-03-21T03:33:38.319Z,51.85
2023-03-21T03:36:07.113Z,51.86
2023-03-21T03:38:36.992Z,51.60
2023-03-21T03:41:07.907Z,51.83
2023-03-21T03:43:37.496Z,51.92
2023-03-21T03:46:10.405Z,51.86
2023-03-21T03:48:46.322Z,51.25
2023-03-21T03:51:16.843Z,51.47
2023-03-21T03:53:46.224Z,51.54
2023-03-21T03:56:14.013Z,51.64
2023-03-21T03:58:45.688Z,51.65
2023-03-21T04:01:14.032Z,51.90
2023-03-21T04:03:49.707Z,51.66
2023-03-21T04:06:19.003Z,52.22
2023-03-21T04:08:48.039Z,51.93
2023-03-21T04:11:16.176Z,52.28
2023-03-21T04:13:43.877Z,52.09
2023-03-21T04:16:12.911Z,52.49
2023-03-21T04:18:40.853Z,52.06
2023-03-21T04:21:10.669Z,52.32
2023-03-21T04:23:38.355Z,52.54
2023-03-21T04:26:07.981Z,52.34
2023-03-21T04:28:36.267Z,52.09
2023-03-21T04:31:13.509Z,51.97
2023-03-21T04:33:50.233Z,52.49
2023-03-21T04:36:26.333Z,51.88
2023-03-21T04:38:54.265Z,52.33
2023-03-21T04:41:23.484Z,51.94
2023-03-21T04:43:52.613Z,52.23
2023-03-21T04:46:20.413Z,52.42
2023-03-21T04:48:48.887Z,52.13
2023-03-21T04:51:16.558Z,52.02
2023-03-21T04:53:45.843Z,52.20
2023-03-21T04:56:13.591Z,52.28
2023-03-21T04:58:42.618Z,51.92
2023-03-21T05:01:10.446Z,52.34
2023-03-21T05:03:40.299Z,52.18
2023-03-21T05:06:09.343Z,51.93
2023-03-21T05:08:37.093Z,52.14
2023-03-21T05:11:05.232Z,52.34
2023-03-21T05:13:33.153Z,52.35
2023-03-21T05:16:02.175Z,52.01
2023-03-21T05:18:30.420Z,52.44
2023-03-21T05:20:58.110Z,52.10
2023-03-21T05:23:25.808Z,53.18
2023-03-21T05:25:53.601Z,52.67
2023-03-21T05:28:21.318Z,53.05
2023-03-21T05:30:49.009Z,52.65
2023-03-21T05:33:18.124Z,52.91
2023-03-21T05:35:45.902Z,52.94
2023-03-21T05:38:13.599Z,52.66
2023-03-21T05:40:41.296Z,52.51
2023-03-21T05:43:09.016Z,52.73
2023-03-21T05:45:36.920Z,53.24
2023-03-21T05:48:05.223Z,53.09
2023-03-21T05:50:34.306Z,52.82
2023-03-21T05:53:02.248Z,52.83
2023-03-21T05:55:29.970Z,53.12
2023-03-21T05:57:57.670Z,52.90
2023-03-21T06:00:26.063Z,52.63
2023-03-21T06:02:53.791Z,52.80
2023-03-21T06:05:21.564Z,52.81
2023-03-21T06:07:50.740Z,52.67
2023-03-21T06:10:18.590Z,52.29
2023-03-21T06:12:46.258Z,52.28
2023-03-21T06:15:14.014Z,51.74
2023-03-21T06:17:42.282Z,51.27
2023-03-21T06:20:11.487Z,50.41
2023-03-21T06:22:39.198Z,50.04
2023-03-21T06:25:09.754Z,50.00
2023-03-21T06:27:37.485Z,49.72
2023-03-21T06:30:05.940Z,49.39
2023-03-21T06:32:33.765Z,49.13
2023-03-21T06:35:01.456Z,49.30
2023-03-21T06:37:29.161Z,49.99
2023-03-21T06:39:56.833Z,50.75
2023-03-21T06:42:25.847Z,50.47
2023-03-21T06:44:53.605Z,50.82
2023-03-21T06:47:21.278Z,51.15
2023-03-21T06:49:48.951Z,51.08
2023-03-21T06:52:16.646Z,51.02
2023-03-21T06:54:44.307Z,50.77
2023-03-21T06:57:13.399Z,51.19
2023-03-21T06:59:42.640Z,51.08
2023-03-21T07:02:11.175Z,50.83
2023-03-21T07:04:39.020Z,50.86
2023-03-21T07:07:06.808Z,51.12
2023-03-21T07:09:34.494Z,51.26
2023-03-21T07:12:02.193Z,51.49
2023-03-21T07:14:31.980Z,51.84
2023-03-21T07:17:01.164Z,51.58
2023-03-21T07:19:28.821Z,51.27
2023-03-21T07:21:56.858Z,51.28
2023-03-21T07:24:24.529Z,51.59
2023-03-21T07:26:52.205Z,51.39
2023-03-21T07:29:21.482Z,51.39
2023-03-21T07:31:49.546Z,50.83
2023-03-21T07:34:18.914Z,51.17
2023-03-21T07:36:46.686Z,50.98
2023-03-21T07:39:14.368Z,50.72
2023-03-21T07:41:42.112Z,50.40
2023-03-21T07:44:09.785Z,50.61
2023-03-21T07:46:37.483Z,50.26
2023-03-21T07:49:06.033Z,50.39
2023-03-21T07:51:36.055Z,50.28
2023-03-21T07:54:03.844Z,50.17
2023-03-21T07:56:31.543Z,50.02
2023-03-21T07:58:59.428Z,49.74
2023-03-21T08:01:27.323Z,50.10
2023-03-21T08:03:55.089Z,50.01
2023-03-21T08:06:22.857Z,49.90
2023-03-21T08:08:51.882Z,49.93
2023-03-21T08:11:21.456Z,49.55
2023-03-21T08:13:49.577Z,49.88
2023-03-21T08:16:17.270Z,49.79
2023-03-21T08:18:45.017Z,49.80
2023-03-21T08:21:12.715Z,49.59
2023-03-21T08:23:40.388Z,49.93
2023-03-21T08:26:10.224Z,49.50
2023-03-21T08:28:39.339Z,49.91
2023-03-21T08:31:08.569Z,49.58
2023-03-21T08:33:36.357Z,49.57
2023-03-21T08:36:04.126Z,49.75
2023-03-21T08:38:33.474Z,49.77
2023-03-21T08:41:01.389Z,49.67
2023-03-21T08:43:30.574Z,49.65
2023-03-21T08:45:58.415Z,49.68
2023-03-21T08:48:26.230Z,50.03
2023-03-21T08:50:53.931Z,49.69
2023-03-21T08:53:21.632Z,49.40
2023-03-21T08:55:50.420Z,49.38
2023-03-21T08:58:18.402Z,49.76
2023-03-21T09:00:47.827Z,49.29
2023-03-21T09:03:15.501Z,49.70
2023-03-21T09:05:45.540Z,49.19
2023-03-21T09:08:14.045Z,49.63
2023-03-21T09:10:41.713Z,49.32
2023-03-21T09:13:09.432Z,49.37
2023-03-21T09:15:37.575Z,49.25
2023-03-21T09:18:15.051Z,49.52
2023-03-21T09:20:43.141Z,49.08
2023-03-21T09:23:11.435Z,49.32
2023-03-21T09:25:39.420Z,49.06
2023-03-21T09:28:07.372Z,49.14
2023-03-21T09:30:35.671Z,49.46
2023-03-21T09:33:03.618Z,49.16
2023-03-21T09:35:32.755Z,48.89
2023-03-21T09:38:00.507Z,48.82
2023-03-21T09:40:47.764Z,49.18
2023-03-21T09:43:22.111Z,49.05
2023-03-21T09:45:52.486Z,49.10
2023-03-21T09:48:31.755Z,48.88
2023-03-21T09:51:01.128Z,48.89
2023-03-21T09:53:30.975Z,49.11
2023-03-21T09:55:59.615Z,49.03
2023-03-21T09:58:29.046Z,49.04
2023-03-21T10:01:01.093Z,49.24
2023-03-21T10:03:31.316Z,49.21
2023-03-21T10:06:01.587Z,48.94
2023-03-21T10:08:31.096Z,49.07
2023-03-21T10:11:01.181Z,48.78
2023-03-21T10:13:29.947Z,49.12
2023-03-21T10:15:57.944Z,48.90
2023-03-21T10:18:26.995Z,48.71
2023-03-21T10:20:54.768Z,48.86
2023-03-21T10:23:26.550Z,48.80
2023-03-21T10:25:55.920Z,48.90
2023-03-21T10:28:26.273Z,49.13
2023-03-21T10:30:54.383Z,48.81
2023-03-21T10:33:23.621Z,48.92
2023-03-21T10:35:52.412Z,49.11
2023-03-21T10:38:21.000Z,48.79
2023-03-21T10:40:50.207Z,49.15
2023-03-21T10:43:31.153Z,48.93
2023-03-21T10:45:59.341Z,48.57
2023-03-21T10:48:27.304Z,48.93
2023-03-21T10:50:55.651Z,48.93
2023-03-21T10:53:24.016Z,48.97
2023-03-21T10:55:53.718Z,49.06
2023-03-21T10:58:27.246Z,48.63
2023-03-21T11:00:57.901Z,48.37
2023-03-21T11:03:29.671Z,48.54
2023-03-21T11:05:58.182Z,49.07
2023-03-21T11:08:27.274Z,49.30
2023-03-21T11:11:01.904Z,49.35
2023-03-21T11:13:34.963Z,49.07
2023-03-21T11:16:06.610Z,49.03
2023-03-21T11:18:34.300Z,49.32
2023-03-21T11:21:04.428Z,49.15
2023-03-21T11:23:33.022Z,49.50
2023-03-21T11:26:02.511Z,49.81
2023-03-21T11:28:34.399Z,49.62
2023-03-21T11:31:02.641Z,49.81
2023-03-21T11:33:33.985Z,49.62
2023-03-21T11:36:02.782Z,49.18
2023-03-21T11:38:32.404Z,49.56
2023-03-21T11:41:02.506Z,49.41
2023-03-21T11:43:31.953Z,49.39
2023-03-21T11:46:01.136Z,49.36
2023-03-21T11:48:28.948Z,49.47
2023-03-21T11:51:00.276Z,49.61
2023-03-21T11:53:35.457Z,49.34
2023-03-21T11:56:26.522Z,49.25
2023-03-21T11:59:16.173Z,49.45
2023-03-21T12:01:50.984Z,48.85
2023-03-21T12:04:21.868Z,48.79
2023-03-21T12:06:52.749Z,48.93
2023-03-21T12:09:29.220Z,49.14
2023-03-21T12:12:03.514Z,48.89
2023-03-21T12:14:35.520Z,48.80
2023-03-21T12:17:07.764Z,48.79
2023-03-21T12:19:50.926Z,49.42
2023-03-21T12:22:22.070Z,49.28
2023-03-21T12:24:51.730Z,49.09
2023-03-21T12:27:24.284Z,49.37
2023-03-21T12:30:00.935Z,49.03
2023-03-21T12:32:50.489Z,49.33
2023-03-21T12:35:25.557Z,49.11
2023-03-21T12:37:58.139Z,49.01
2023-03-21T12:40:34.319Z,48.88
2023-03-21T12:43:15.392Z,49.25
2023-03-21T12:45:47.387Z,49.05
2023-03-21T12:48:19.024Z,48.90
2023-03-21T12:50:47.043Z,48.81
2023-03-21T12:53:27.065Z,48.87
2023-03-21T12:55:54.988Z,49.01
2023-03-21T12:58:24.805Z,49.36
2023-03-21T13:00:54.027Z,49.22
2023-03-21T13:03:30.574Z,49.17
2023-03-21T13:06:07.469Z,49.66
2023-03-21T13:08:38.228Z,49.21
2023-03-21T13:11:06.387Z,49.28
2023-03-21T13:13:37.226Z,49.21
2023-03-21T13:16:10.578Z,49.23
2023-03-21T13:18:56.357Z,49.43
2023-03-21T13:21:31.229Z,49.30
2023-03-21T13:24:01.600Z,49.38
2023-03-21T13:26:38.093Z,49.26
2023-03-21T13:29:23.839Z,49.24
2023-03-21T13:31:54.627Z,49.36
2023-03-21T13:34:23.718Z,49.32
2023-03-21T13:36:52.018Z,49.23
2023-03-21T13:39:20.812Z,49.40
2023-03-21T13:41:49.921Z,49.00
2023-03-21T13:44:23.512Z,49.52
2023-03-21T13:47:00.551Z,49.17
2023-03-21T13:49:30.970Z,49.06
2023-03-21T13:51:59.001Z,48.97
2023-03-21T13:54:30.645Z,49.07
2023-03-21T13:57:01.328Z,49.25
2023-03-21T13:59:43.701Z,49.28
2023-03-21T14:02:30.124Z,49.42
2023-03-21T14:05:07.261Z,49.29
2023-03-21T14:07:36.574Z,49.32
2023-03-21T14:10:06.362Z,49.28
2023-03-21T14:12:38.021Z,49.31
2023-03-21T14:15:16.250Z,49.20
2023-03-21T14:17:51.200Z,49.21
2023-03-21T14:20:21.501Z,49.28
2023-03-21T14:22:49.477Z,49.05
2023-03-21T14:25:18.472Z,49.01
2023-03-21T14:27:48.291Z,48.91
2023-03-21T14:30:23.011Z,48.74
2023-03-21T14:32:50.684Z,49.05
2023-03-21T14:35:18.395Z,48.91
2023-03-21T14:37:47.998Z,49.05
2023-03-21T14:40:22.493Z,48.88
2023-03-21T14:42:50.582Z,48.77
2023-03-21T14:45:21.582Z,48.82
2023-03-21T14:47:56.214Z,49.23
2023-03-21T14:50:25.425Z,49.11
2023-03-21T14:52:54.185Z,49.07
2023-03-21T14:55:21.865Z,49.08
2023-03-21T14:57:49.537Z,48.84
2023-03-21T15:00:25.342Z,48.65
2023-03-21T15:02:53.066Z,48.82
2023-03-21T15:05:22.933Z,48.72
2023-03-21T15:07:55.176Z,48.99
2023-03-21T15:10:23.893Z,48.69
2023-03-21T15:12:52.662Z,49.03
2023-03-21T15:15:20.523Z,48.74
2023-03-21T15:17:49.679Z,49.03
2023-03-21T15:20:17.506Z,48.80
2023-03-21T15:22:46.518Z,48.53
2023-03-21T15:25:16.276Z,48.35
2023-03-21T15:27:43.934Z,48.93
2023-03-21T15:30:19.686Z,48.85
2023-03-21T15:32:48.715Z,48.82
2023-03-21T15:35:17.289Z,49.02
2023-03-21T15:37:44.965Z,48.76
2023-03-21T15:40:19.618Z,48.73
2023-03-21T15:42:47.308Z,48.93
2023-03-21T15:45:18.292Z,48.86
2023-03-21T15:47:53.946Z,48.87
2023-03-21T15:50:29.519Z,48.89
2023-03-21T15:52:57.479Z,48.98
2023-03-21T15:55:27.882Z,48.91
2023-03-21T15:57:56.212Z,48.92
2023-03-21T16:00:26.413Z,48.91
2023-03-21T16:02:57.560Z,48.79
2023-03-21T16:05:27.407Z,48.75
2023-03-21T16:07:55.136Z,48.80
2023-03-21T16:10:27.944Z,49.11
2023-03-21T16:12:55.654Z,48.68
2023-03-21T16:15:23.896Z,48.86
2023-03-21T16:17:53.360Z,48.74
2023-03-21T16:20:23.829Z,48.94
2023-03-21T16:22:51.551Z,48.96
2023-03-21T16:25:19.275Z,48.97
2023-03-21T16:27:49.192Z,49.03
2023-03-21T16:30:18.393Z,48.86
2023-03-21T16:32:46.043Z,48.84
2023-03-21T16:35:13.785Z,48.87
2023-03-21T16:37:42.860Z,48.55
2023-03-21T16:40:17.545Z,48.55
2023-03-21T16:42:45.482Z,48.83
2023-03-21T16:45:13.352Z,48.78
2023-03-21T16:47:41.149Z,49.02
2023-03-21T16:50:21.031Z,49.06
2023-03-21T16:52:50.108Z,48.76
2023-03-21T16:55:17.960Z,48.67
2023-03-21T16:57:45.974Z,49.02
2023-03-21T17:00:16.688Z,48.77
2023-03-21T17:02:44.524Z,49.22
2023-03-21T17:05:12.552Z,49.02
2023-03-21T17:07:41.770Z,49.31
2023-03-21T17:10:16.781Z,49.34
2023-03-21T17:12:44.487Z,49.30
2023-03-21T17:15:13.268Z,49.47
2023-03-21T17:17:41.148Z,49.47
2023-03-21T17:20:17.908Z,49.29
2023-03-21T17:22:45.809Z,49.38
2023-03-21T17:25:15.130Z,49.35
2023-03-21T17:27:43.100Z,49.48
2023-03-21T17:30:21.027Z,49.16
2023-03-21T17:32:49.022Z,49.48
2023-03-21T17:35:17.192Z,49.92
2023-03-21T17:37:50.484Z,49.94
2023-03-21T17:40:21.342Z,49.77
2023-03-21T17:42:49.201Z,49.60
2023-03-21T17:45:17.046Z,50.13
2023-03-21T17:47:44.852Z,49.65
2023-03-21T17:50:15.374Z,49.61
2023-03-21T17:52:43.067Z,49.63
2023-03-21T17:55:10.840Z,49.27
2023-03-21T17:57:40.207Z,49.00
2023-03-21T18:00:12.565Z,49.44
2023-03-21T18:02:40.925Z,49.49
2023-03-21T18:05:09.554Z,49.49
2023-03-21T18:08:08.077Z,49.46
2023-03-21T18:10:26.393Z,49.24
2023-03-21T18:12:56.381Z,49.34
2023-03-21T18:15:24.266Z,49.27
2023-03-21T18:17:52.024Z,49.06
2023-03-21T18:20:20.953Z,48.93
2023-03-21T18:22:48.604Z,49.16
2023-03-21T18:25:16.719Z,49.36
2023-03-21T18:28:06.801Z,49.01
2023-03-21T18:30:56.459Z,49.22
2023-03-21T18:33:21.568Z,49.59
2023-03-21T18:35:55.893Z,49.62
2023-03-21T18:38:26.364Z,49.34
2023-03-21T18:40:54.066Z,49.79
2023-03-21T18:46:11.047Z,49.47
2023-03-21T18:48:39.389Z,49.51
2023-03-21T18:51:07.498Z,49.96
2023-03-21T18:53:35.418Z,49.52
2023-03-21T18:56:03.185Z,49.60
2023-03-21T18:58:31.209Z,49.92
2023-03-21T19:00:59.025Z,49.46
2023-03-21T19:03:36.564Z,49.70
2023-03-21T19:06:05.453Z,49.53
2023-03-21T19:08:34.598Z,49.66
2023-03-21T19:11:06.013Z,49.95
2023-03-21T19:13:34.278Z,49.83
2023-03-21T19:16:02.894Z,49.88
2023-03-21T19:18:53.966Z,49.84
2023-03-21T19:21:21.468Z,49.68
2023-03-21T19:24:23.005Z,50.05
2023-03-21T19:26:36.816Z,49.97
2023-03-21T19:29:04.625Z,50.12
2023-03-21T19:31:32.613Z,49.88
2023-03-21T19:34:01.850Z,49.76
2023-03-21T19:36:29.607Z,49.51
2023-03-21T19:38:57.356Z,49.80
2023-03-21T19:41:25.441Z,49.90
2023-03-21T19:43:55.386Z,49.83
2023-03-21T19:46:25.155Z,49.39
2023-03-21T19:48:56.177Z,49.57
2023-03-21T19:51:28.823Z,49.76
2023-03-21T19:53:57.769Z,49.81
2023-03-21T19:56:27.401Z,49.57
2023-03-21T19:58:55.516Z,49.65
2023-03-21T20:01:23.960Z,50.06
2023-03-21T20:03:52.243Z,50.07
2023-03-21T20:06:22.151Z,49.90
2023-03-21T20:09:41.453Z,49.91
2023-03-21T20:11:39.338Z,50.02
2023-03-21T20:14:07.295Z,49.68
2023-03-21T20:16:36.674Z,50.08
2023-03-21T20:19:05.024Z,49.45
2023-03-21T20:21:42.594Z,50.14
2023-03-21T20:24:16.258Z,49.84
2023-03-21T20:26:44.916Z,49.81
2023-03-21T20:30:05.709Z,49.92
2023-03-21T20:32:00.682Z,49.97
2023-03-21T20:34:30.433Z,49.91
2023-03-21T20:36:58.530Z,49.78
2023-03-21T20:39:29.891Z,49.77
2023-03-21T20:41:59.401Z,49.85
2023-03-21T20:44:51.902Z,50.17
2023-03-21T20:47:15.515Z,50.10
2023-03-21T20:49:43.218Z,49.95
2023-03-21T20:55:00.033Z,49.82
2023-03-21T20:57:27.802Z,49.92
2023-03-21T20:59:55.625Z,50.08
2023-03-21T21:02:23.606Z,49.71
2023-03-21T21:05:21.849Z,50.04
2023-03-21T21:07:41.432Z,50.00
2023-03-21T21:10:11.463Z,49.76
2023-03-21T21:12:39.453Z,50.20
2023-03-21T21:15:08.420Z,49.91
2023-03-21T21:20:24.001Z,50.07
2023-03-21T21:22:59.458Z,50.27
2023-03-21T21:25:30.525Z,50.02
2023-03-21T21:27:58.269Z,50.17
2023-03-21T21:30:26.049Z,49.96
2023-03-21T21:32:53.909Z,50.06
2023-03-21T21:35:22.606Z,50.02
2023-03-21T21:37:51.069Z,49.92
2023-03-21T21:40:20.659Z,49.90
2023-03-21T21:42:49.835Z,50.07
2023-03-21T21:45:18.308Z,50.25
2023-03-21T21:47:46.239Z,50.32
2023-03-21T21:50:14.193Z,49.84
2023-03-21T21:52:44.056Z,50.24
2023-03-21T21:55:13.107Z,49.94
2023-03-21T21:57:40.938Z,49.98
2023-03-21T22:00:13.431Z,50.30
2023-03-21T22:02:42.478Z,49.98
2023-03-21T22:05:10.499Z,49.82
2023-03-21T22:07:39.110Z,49.88
2023-03-21T22:10:08.003Z,50.09
2023-03-21T22:12:35.734Z,49.91
2023-03-21T22:15:03.959Z,50.14
2023-03-21T22:17:33.033Z,50.17
2023-03-21T22:20:06.417Z,50.29
2023-03-21T22:22:34.542Z,50.17
2023-03-21T22:25:02.288Z,50.25
2023-03-21T22:27:30.010Z,50.15
2023-03-21T22:29:57.737Z,50.43
2023-03-21T22:32:25.513Z,50.54
2023-03-21T22:34:54.571Z,50.67
2023-03-21T22:37:22.316Z,50.54
2023-03-21T22:39:50.319Z,50.42
2023-03-21T22:42:17.992Z,50.63
2023-03-21T22:44:45.712Z,50.86
2023-03-21T22:47:13.427Z,51.20
2023-03-21T22:49:42.424Z,51.22
2023-03-21T22:52:12.292Z,50.94
2023-03-21T22:54:40.018Z,50.95
2023-03-21T22:57:08.505Z,50.63
2023-03-21T22:59:36.267Z,50.93
2023-03-21T23:02:03.948Z,50.64
2023-03-21T23:04:32.301Z,51.14
2023-03-21T23:07:00.033Z,50.73
2023-03-21T23:09:29.215Z,50.97
2023-03-21T23:11:56.960Z,50.67
2023-03-21T23:14:24.748Z,50.88
2023-03-21T23:16:53.480Z,50.87
2023-03-21T23:19:21.407Z,51.20
2023-03-21T23:21:49.123Z,50.69
2023-03-21T23:24:16.786Z,50.79
2023-03-21T23:26:46.183Z,50.83
2023-03-21T23:29:14.012Z,50.99
2023-03-21T23:31:41.735Z,50.99
2023-03-21T23:34:09.429Z,51.00
2023-03-21T23:36:37.147Z,50.77
2023-03-21T23:39:05.010Z,50.68
2023-03-21T23:41:32.683Z,50.72
2023-03-21T23:44:01.735Z,51.02
2023-03-21T23:46:29.412Z,50.96
2023-03-21T23:48:57.131Z,51.01
2023-03-21T23:51:24.816Z,50.79
2023-03-21T23:53:53.297Z,50.61
2023-03-21T23:56:22.133Z,50.86
2023-03-21T23:58:51.274Z,50.79
